createdAt,value
2018-10-11T00:01:28.784Z,12.82
2018-10-11T00:03:57.143Z,12.81
2018-10-11T00:06:25.464Z,12.80
2018-10-11T00:08:53.835Z,12.77
2018-10-11T00:11:22.148Z,12.76
2018-10-11T00:13:51.740Z,12.75
2018-10-11T00:16:20.052Z,12.71
2018-10-11T00:18:48.436Z,12.72
2018-10-11T00:21:16.689Z,12.65
2018-10-11T00:23:45.002Z,12.60
2018-10-11T00:26:13.374Z,12.64
2018-10-11T00:28:41.797Z,12.62
2018-10-11T00:31:10.163Z,12.65
2018-10-11T00:33:38.517Z,12.63
2018-10-11T00:36:07.144Z,12.58
2018-10-11T00:38:35.509Z,12.61
2018-10-11T00:41:03.840Z,12.58
2018-10-11T00:43:32.265Z,12.55
2018-10-11T00:46:00.620Z,12.51
2018-10-11T00:48:28.964Z,12.47
2018-10-11T00:50:57.394Z,12.45
2018-10-11T00:53:26.097Z,12.39
2018-10-11T00:55:54.412Z,12.34
2018-10-11T00:58:22.786Z,12.31
2018-10-11T01:00:51.250Z,12.24
2018-10-11T01:03:19.670Z,12.21
2018-10-11T01:05:48.007Z,12.17
2018-10-11T01:08:16.525Z,12.21
2018-10-11T01:10:44.949Z,12.21
2018-10-11T01:13:13.230Z,12.19
2018-10-11T01:15:41.491Z,12.12
2018-10-11T01:18:09.788Z,12.11
2018-10-11T01:20:38.124Z,12.08
2018-10-11T01:23:06.546Z,12.06
2018-10-11T01:25:34.918Z,12.04
2018-10-11T01:28:03.373Z,12.05
2018-10-11T01:30:31.774Z,12.06
2018-10-11T01:33:00.058Z,12.10
2018-10-11T01:35:28.591Z,12.11
2018-10-11T01:37:56.887Z,12.23
2018-10-11T01:40:25.513Z,12.22
2018-10-11T01:43:08.632Z,12.26
2018-10-11T01:45:36.984Z,12.30
2018-10-11T01:48:05.425Z,12.34
2018-10-11T01:50:33.737Z,12.35
2018-10-11T01:53:05.238Z,12.37
2018-10-11T01:55:33.882Z,12.39
2018-10-11T01:58:02.224Z,12.42
2018-10-11T02:00:30.613Z,12.47
2018-10-11T02:02:59.627Z,12.44
2018-10-11T02:05:28.766Z,12.45
2018-10-11T02:07:58.185Z,12.50
2018-10-11T02:10:27.648Z,12.45
2018-10-11T02:12:56.539Z,12.38
2018-10-11T02:15:25.405Z,12.35
2018-10-11T02:17:53.698Z,12.33
2018-10-11T02:20:21.974Z,12.32
2018-10-11T02:22:50.310Z,12.35
2018-10-11T02:25:18.617Z,12.31
2018-10-11T02:27:47.030Z,12.36
2018-10-11T02:30:15.358Z,12.34
2018-10-11T02:32:43.903Z,12.41
2018-10-11T02:35:12.685Z,12.43
2018-10-11T02:37:41.432Z,12.41
2018-10-11T02:40:09.854Z,12.37
2018-10-11T02:42:38.173Z,12.35
2018-10-11T02:45:06.693Z,12.32
2018-10-11T02:47:35.187Z,12.31
2018-10-11T02:50:03.696Z,12.26
2018-10-11T02:52:31.994Z,12.30
2018-10-11T02:55:00.300Z,12.28
2018-10-11T02:57:39.885Z,12.31
2018-10-11T03:00:08.246Z,12.31
2018-10-11T03:02:37.904Z,12.24
2018-10-11T03:05:16.695Z,12.21
2018-10-11T03:07:45.313Z,12.16
2018-10-11T03:10:13.754Z,12.16
2018-10-11T03:12:42.085Z,12.20
2018-10-11T03:15:10.460Z,12.17
2018-10-11T03:17:38.744Z,12.16
2018-10-11T03:20:07.138Z,12.12
2018-10-11T03:22:35.564Z,12.12
2018-10-11T03:25:03.941Z,12.06
2018-10-11T03:27:32.271Z,12.12
2018-10-11T03:30:00.662Z,12.15
2018-10-11T03:32:29.000Z,12.09
2018-10-11T03:34:57.428Z,12.11
2018-10-11T03:37:25.905Z,12.10
2018-10-11T03:39:54.236Z,12.11
2018-10-11T03:42:22.543Z,12.06
2018-10-11T03:44:50.872Z,11.98
2018-10-11T03:47:19.276Z,11.93
2018-10-11T03:49:47.578Z,11.87
2018-10-11T03:52:15.880Z,11.86
2018-10-11T03:54:44.321Z,11.81
2018-10-11T03:57:12.621Z,11.79
2018-10-11T03:59:41.110Z,11.74
2018-10-11T04:02:09.570Z,11.71
2018-10-11T04:04:37.904Z,11.73
2018-10-11T04:07:06.401Z,11.76
2018-10-11T04:09:34.819Z,11.74
2018-10-11T04:12:03.092Z,11.71
2018-10-11T04:14:31.415Z,11.75
2018-10-11T04:16:59.717Z,11.79
2018-10-11T04:19:28.048Z,11.77
2018-10-11T04:21:56.544Z,11.76
2018-10-11T04:24:24.870Z,11.74
2018-10-11T04:26:53.186Z,11.66
2018-10-11T04:29:21.590Z,11.62
2018-10-11T04:31:50.835Z,11.61
2018-10-11T04:34:19.144Z,11.55
2018-10-11T04:36:47.588Z,11.59
2018-10-11T04:39:15.848Z,11.56
2018-10-11T04:41:44.229Z,11.55
2018-10-11T04:44:12.527Z,11.52
2018-10-11T04:46:41.028Z,11.47
2018-10-11T04:49:09.492Z,11.42
2018-10-11T04:51:38.010Z,11.36
2018-10-11T04:54:06.280Z,11.30
2018-10-11T04:56:34.723Z,11.35
2018-10-11T04:59:03.070Z,11.38
2018-10-11T05:01:31.391Z,11.38
2018-10-11T05:03:59.667Z,11.42
2018-10-11T05:06:27.955Z,11.33
2018-10-11T05:08:56.452Z,11.29
2018-10-11T05:11:24.900Z,11.27
2018-10-11T05:13:53.831Z,11.22
2018-10-11T05:16:22.342Z,11.16
2018-10-11T05:18:56.247Z,11.14
2018-10-11T05:21:24.798Z,11.18
2018-10-11T05:23:53.319Z,11.17
2018-10-11T05:26:21.782Z,11.18
2018-10-11T05:28:50.088Z,11.17
2018-10-11T05:31:18.580Z,11.10
2018-10-11T05:33:46.954Z,11.10
2018-10-11T05:36:15.599Z,11.06
2018-10-11T05:38:44.538Z,11.18
2018-10-11T05:41:13.180Z,11.46
2018-10-11T05:43:41.516Z,11.52
2018-10-11T05:46:13.773Z,11.53
2018-10-11T05:48:42.157Z,11.53
2018-10-11T05:51:10.455Z,11.53
2018-10-11T05:53:39.417Z,11.76
2018-10-11T05:56:07.821Z,11.77
2018-10-11T05:58:36.344Z,11.77
2018-10-11T06:01:04.834Z,11.63
2018-10-11T06:03:33.155Z,11.57
2018-10-11T06:06:01.498Z,11.57
2018-10-11T06:08:29.863Z,11.54
2018-10-11T06:10:58.239Z,11.47
2018-10-11T06:13:26.579Z,11.42
2018-10-11T06:15:54.981Z,11.50
2018-10-11T06:18:23.372Z,11.47
2018-10-11T06:20:51.808Z,11.49
2018-10-11T06:23:20.127Z,11.52
2018-10-11T06:25:48.460Z,11.70
2018-10-11T06:28:16.841Z,11.72
2018-10-11T06:30:45.275Z,11.85
2018-10-11T06:33:13.664Z,11.95
2018-10-11T06:35:42.095Z,11.98
2018-10-11T06:38:10.452Z,12.05
2018-10-11T06:40:38.896Z,12.11
2018-10-11T06:43:07.495Z,12.23
2018-10-11T06:45:35.916Z,12.28
2018-10-11T06:48:06.840Z,12.36
2018-10-11T06:50:35.326Z,12.40
2018-10-11T06:53:04.066Z,12.41
2018-10-11T06:55:32.381Z,12.46
2018-10-11T06:58:00.782Z,12.51
2018-10-11T07:00:29.108Z,12.60
2018-10-11T07:02:57.394Z,12.71
2018-10-11T07:05:25.842Z,12.83
2018-10-11T07:07:54.143Z,13.02
2018-10-11T07:10:22.739Z,13.07
2018-10-11T07:12:51.106Z,13.21
2018-10-11T07:15:19.391Z,13.34
2018-10-11T07:17:47.878Z,13.49
2018-10-11T07:20:16.324Z,13.66
2018-10-11T07:22:45.080Z,13.79
2018-10-11T07:25:13.483Z,13.93
2018-10-11T07:27:43.395Z,14.03
2018-10-11T07:30:11.699Z,14.16
2018-10-11T07:32:40.138Z,14.32
2018-10-11T07:35:08.455Z,14.42
2018-10-11T07:37:36.697Z,14.41
2018-10-11T07:40:05.360Z,14.39
2018-10-11T07:42:33.623Z,14.55
2018-10-11T07:45:02.132Z,14.49
2018-10-11T07:47:30.636Z,14.72
2018-10-11T07:49:58.940Z,14.82
2018-10-11T07:52:27.534Z,14.94
2018-10-11T07:54:55.855Z,15.15
2018-10-11T07:57:24.232Z,15.17
2018-10-11T07:59:52.507Z,15.20
2018-10-11T08:02:20.788Z,15.37
2018-10-11T08:04:49.075Z,15.40
2018-10-11T08:07:17.573Z,15.63
2018-10-11T08:09:45.842Z,15.66
2018-10-11T08:12:14.452Z,15.65
2018-10-11T08:14:42.732Z,15.63
2018-10-11T08:17:11.377Z,15.78
2018-10-11T08:19:39.502Z,15.82
2018-10-11T08:22:07.798Z,15.98
2018-10-11T08:24:36.123Z,16.06
2018-10-11T08:27:04.583Z,16.02
2018-10-11T08:29:32.870Z,16.25
2018-10-11T08:32:01.160Z,16.36
2018-10-11T08:34:29.460Z,16.59
2018-10-11T08:36:57.771Z,16.75
2018-10-11T08:39:26.228Z,16.95
2018-10-11T08:41:54.468Z,17.03
2018-10-11T08:44:22.817Z,17.21
2018-10-11T08:46:51.218Z,17.25
2018-10-11T08:49:19.564Z,17.26
2018-10-11T08:51:48.060Z,17.43
2018-10-11T08:54:21.673Z,17.65
2018-10-11T08:56:49.917Z,17.79
2018-10-11T08:59:18.515Z,17.72
2018-10-11T09:01:46.730Z,18.01
2018-10-11T09:04:15.123Z,18.06
2018-10-11T09:06:43.367Z,18.17
2018-10-11T09:09:11.790Z,18.17
2018-10-11T09:11:40.162Z,18.43
2018-10-11T09:14:08.650Z,18.49
2018-10-11T09:16:37.124Z,18.52
2018-10-11T09:19:05.439Z,18.68
2018-10-11T09:21:33.747Z,18.83
2018-10-11T09:24:02.022Z,18.92
2018-10-11T09:26:30.368Z,19.09
2018-10-11T09:28:58.665Z,19.23
2018-10-11T09:31:26.988Z,18.97
2018-10-11T09:33:55.263Z,19.18
2018-10-11T09:36:23.676Z,19.41
2018-10-11T09:38:52.342Z,19.65
2018-10-11T09:41:20.669Z,19.63
2018-10-11T09:43:49.097Z,19.85
2018-10-11T09:46:17.654Z,19.73
2018-10-11T09:48:46.088Z,19.77
2018-10-11T09:51:14.298Z,19.96
2018-10-11T09:53:42.723Z,20.17
2018-10-11T09:56:11.030Z,20.20
2018-10-11T09:58:39.399Z,20.27
2018-10-11T10:01:12.984Z,20.51
2018-10-11T10:03:41.501Z,20.48
2018-10-11T10:06:09.913Z,20.55
2018-10-11T10:08:38.263Z,20.43
2018-10-11T10:11:06.653Z,20.54
2018-10-11T10:13:35.008Z,20.63
2018-10-11T10:16:03.296Z,20.68
2018-10-11T10:18:31.731Z,20.50
2018-10-11T10:21:00.090Z,20.57
2018-10-11T10:23:28.309Z,20.86
2018-10-11T10:25:56.615Z,21.16
2018-10-11T10:28:24.882Z,21.15
2018-10-11T10:30:54.654Z,21.40
2018-10-11T10:33:24.452Z,21.51
2018-10-11T10:35:53.140Z,21.78
2018-10-11T10:38:22.684Z,21.59
2018-10-11T10:40:51.099Z,21.35
2018-10-11T10:43:19.502Z,21.58
2018-10-11T10:45:47.744Z,21.74
2018-10-11T10:48:16.121Z,21.97
2018-10-11T10:50:44.402Z,21.87
2018-10-11T10:53:12.795Z,21.91
2018-10-11T10:55:41.214Z,21.95
2018-10-11T10:58:09.453Z,22.21
2018-10-11T11:00:37.854Z,22.43
2018-10-11T11:03:06.176Z,22.45
2018-10-11T11:05:34.494Z,22.59
2018-10-11T11:08:02.806Z,22.44
2018-10-11T11:10:31.163Z,22.59
2018-10-11T11:12:59.505Z,22.60
2018-10-11T11:15:27.874Z,22.58
2018-10-11T11:17:56.186Z,22.80
2018-10-11T11:20:24.856Z,22.84
2018-10-11T11:22:53.266Z,23.19
2018-10-11T11:25:22.021Z,23.27
2018-10-11T11:27:50.324Z,23.34
2018-10-11T11:30:18.617Z,23.49
2018-10-11T11:32:46.878Z,23.98
2018-10-11T11:35:15.972Z,24.00
2018-10-11T11:37:44.318Z,24.43
2018-10-11T11:40:12.611Z,24.59
2018-10-11T11:42:40.943Z,25.14
2018-10-11T11:45:09.311Z,25.79
2018-10-11T11:47:37.853Z,26.32
2018-10-11T11:50:06.268Z,26.58
2018-10-11T11:52:34.557Z,26.72
2018-10-11T11:55:02.941Z,26.99
2018-10-11T11:57:31.303Z,27.61
2018-10-11T11:59:59.646Z,27.37
2018-10-11T12:02:27.952Z,28.88
2018-10-11T12:04:56.283Z,29.01
2018-10-11T12:07:24.688Z,29.76
2018-10-11T12:09:52.949Z,30.72
2018-10-11T12:13:24.531Z,30.91
2018-10-11T12:15:52.961Z,31.90
2018-10-11T12:18:22.144Z,32.68
2018-10-11T12:20:50.446Z,31.54
2018-10-11T12:23:18.774Z,30.90
2018-10-11T12:25:47.177Z,31.17
2018-10-11T12:28:15.495Z,30.34
2018-10-11T12:30:43.953Z,31.13
2018-10-11T12:33:12.241Z,31.87
2018-10-11T12:35:40.714Z,31.79
2018-10-11T12:38:09.016Z,31.56
2018-10-11T12:40:37.470Z,31.19
2018-10-11T12:43:06.096Z,31.56
2018-10-11T12:45:34.435Z,32.34
2018-10-11T12:48:02.732Z,32.78
2018-10-11T12:50:31.150Z,33.38
2018-10-11T12:52:59.522Z,33.49
2018-10-11T12:55:27.774Z,33.26
2018-10-11T12:57:56.070Z,32.69
2018-10-11T13:00:24.361Z,31.76
2018-10-11T13:02:52.750Z,30.92
2018-10-11T13:05:20.935Z,29.64
2018-10-11T13:07:49.247Z,29.10
2018-10-11T13:10:17.611Z,28.75
2018-10-11T13:12:45.922Z,28.46
2018-10-11T13:15:14.346Z,28.82
2018-10-11T13:17:43.647Z,28.69
2018-10-11T13:20:11.082Z,28.82
2018-10-11T13:22:39.544Z,29.16
2018-10-11T13:25:08.008Z,29.55
2018-10-11T13:27:36.491Z,30.43
2018-10-11T13:30:04.869Z,30.83
2018-10-11T13:32:33.247Z,30.53
2018-10-11T13:35:01.785Z,30.38
2018-10-11T13:37:30.262Z,30.05
2018-10-11T13:39:58.800Z,29.59
2018-10-11T13:42:27.307Z,29.13
2018-10-11T13:44:55.795Z,28.98
2018-10-11T13:47:24.073Z,28.70
2018-10-11T13:49:52.412Z,28.76
2018-10-11T13:52:22.514Z,28.30
2018-10-11T13:54:49.135Z,28.63
2018-10-11T13:57:17.585Z,28.55
2018-10-11T13:59:45.888Z,28.40
2018-10-11T14:02:14.221Z,28.23
2018-10-11T14:04:42.619Z,28.07
2018-10-11T14:07:10.836Z,28.37
2018-10-11T14:09:39.290Z,27.91
2018-10-11T14:12:07.633Z,27.51
2018-10-11T14:14:36.050Z,27.25
2018-10-11T14:17:04.343Z,26.82
2018-10-11T14:19:32.629Z,26.51
2018-10-11T14:22:00.917Z,26.04
2018-10-11T14:24:29.180Z,25.89
2018-10-11T14:26:57.504Z,25.58
2018-10-11T14:29:25.969Z,25.60
2018-10-11T14:31:54.317Z,25.78
2018-10-11T14:34:22.612Z,25.86
2018-10-11T14:36:51.019Z,25.70
2018-10-11T14:39:19.259Z,26.17
2018-10-11T14:41:47.635Z,26.47
2018-10-11T14:44:15.951Z,26.70
2018-10-11T14:46:44.387Z,26.83
2018-10-11T14:49:12.750Z,26.93
2018-10-11T14:51:44.475Z,26.76
2018-10-11T14:54:10.431Z,26.46
2018-10-11T14:56:38.819Z,26.24
2018-10-11T14:59:07.084Z,26.10
2018-10-11T15:01:35.372Z,25.91
2018-10-11T15:04:03.644Z,25.68
2018-10-11T15:06:32.524Z,25.45
2018-10-11T15:09:00.835Z,25.21
2018-10-11T15:11:29.539Z,24.88
2018-10-11T15:13:57.710Z,24.66
2018-10-11T15:16:26.040Z,24.54
2018-10-11T15:18:54.285Z,24.28
2018-10-11T15:21:22.677Z,24.10
2018-10-11T15:23:50.982Z,23.92
2018-10-11T15:26:19.311Z,23.70
2018-10-11T15:28:47.673Z,23.53
2018-10-11T15:31:16.203Z,23.42
2018-10-11T15:33:44.450Z,23.29
2018-10-11T15:36:12.732Z,23.14
2018-10-11T15:38:41.033Z,22.96
2018-10-11T15:41:09.352Z,22.87
2018-10-11T15:43:37.915Z,22.79
2018-10-11T15:46:06.974Z,22.65
2018-10-11T15:48:35.228Z,22.50
2018-10-11T15:51:03.720Z,22.34
2018-10-11T15:53:32.162Z,22.24
2018-10-11T15:56:00.522Z,22.08
2018-10-11T15:58:28.876Z,21.95
2018-10-11T16:00:57.108Z,21.82
2018-10-11T16:03:25.673Z,21.75
2018-10-11T16:05:53.932Z,21.69
2018-10-11T16:08:22.212Z,21.63
2018-10-11T16:10:50.733Z,21.56
2018-10-11T16:13:19.121Z,21.47
2018-10-11T16:15:47.499Z,21.38
2018-10-11T16:18:15.881Z,21.26
2018-10-11T16:20:44.178Z,21.23
2018-10-11T16:23:12.511Z,21.09
2018-10-11T16:25:40.760Z,20.99
2018-10-11T16:28:09.312Z,20.90
2018-10-11T16:30:38.154Z,20.76
2018-10-11T16:33:06.861Z,20.78
2018-10-11T16:35:35.156Z,20.72
2018-10-11T16:38:03.495Z,20.65
2018-10-11T16:40:31.828Z,20.59
2018-10-11T16:43:00.240Z,20.50
2018-10-11T16:45:28.661Z,20.41
2018-10-11T16:47:57.097Z,20.33
2018-10-11T16:50:25.469Z,20.26
2018-10-11T16:52:53.837Z,20.27
2018-10-11T16:55:22.193Z,20.26
2018-10-11T16:57:50.513Z,20.20
2018-10-11T17:00:18.708Z,20.15
2018-10-11T17:02:47.254Z,20.14
2018-10-11T17:05:15.552Z,20.14
2018-10-11T17:07:43.908Z,20.10
2018-10-11T17:10:12.213Z,20.06
2018-10-11T17:12:40.574Z,20.02
2018-10-11T17:15:09.001Z,20.02
2018-10-11T17:17:37.326Z,19.96
2018-10-11T17:20:05.674Z,19.91
2018-10-11T17:22:34.146Z,19.84
2018-10-11T17:25:02.784Z,19.78
2018-10-11T17:27:31.456Z,19.73
2018-10-11T17:29:59.838Z,19.70
2018-10-11T17:32:28.228Z,19.69
2018-10-11T17:34:56.649Z,19.68
2018-10-11T17:37:24.952Z,19.68
2018-10-11T17:39:53.483Z,19.69
2018-10-11T17:42:21.862Z,19.70
2018-10-11T17:44:50.274Z,19.68
2018-10-11T17:47:18.612Z,19.70
2018-10-11T17:49:46.980Z,19.65
2018-10-11T17:52:16.090Z,19.64
2018-10-11T17:54:50.091Z,19.61
2018-10-11T17:57:18.719Z,19.58
2018-10-11T17:59:47.678Z,19.55
2018-10-11T18:02:16.763Z,19.53
2018-10-11T18:04:45.211Z,19.50
2018-10-11T18:07:14.037Z,19.49
2018-10-11T18:09:42.496Z,19.48
2018-10-11T18:12:10.930Z,19.47
2018-10-11T18:14:39.343Z,19.42
2018-10-11T18:17:08.187Z,19.39
2018-10-11T18:19:36.512Z,19.34
2018-10-11T18:22:05.056Z,19.31
2018-10-11T18:24:33.440Z,19.28
2018-10-11T18:27:02.082Z,19.21
2018-10-11T18:29:31.507Z,19.20
2018-10-11T18:32:01.568Z,19.16
2018-10-11T18:34:30.028Z,19.10
2018-10-11T18:36:58.386Z,19.07
2018-10-11T18:39:26.784Z,19.08
2018-10-11T18:41:55.094Z,19.07
2018-10-11T18:44:23.525Z,19.02
2018-10-11T18:46:51.807Z,18.99
2018-10-11T18:49:20.138Z,18.99
2018-10-11T18:51:48.467Z,18.97
2018-10-11T18:54:16.782Z,18.94
2018-10-11T18:56:45.133Z,18.85
2018-10-11T18:59:13.415Z,18.83
2018-10-11T19:01:41.652Z,18.84
2018-10-11T19:04:09.996Z,18.83
2018-10-11T19:06:38.551Z,18.63
2018-10-11T19:09:08.346Z,18.61
2018-10-11T19:11:37.103Z,18.54
2018-10-11T19:14:05.521Z,18.47
2018-10-11T19:16:33.955Z,18.37
2018-10-11T19:19:02.205Z,18.41
2018-10-11T19:21:31.362Z,18.28
2018-10-11T19:23:59.742Z,18.23
2018-10-11T19:26:28.350Z,18.21
2018-10-11T19:28:56.907Z,18.17
2018-10-11T19:31:25.264Z,18.13
2018-10-11T19:33:53.840Z,18.06
2018-10-11T19:36:22.258Z,17.97
2018-10-11T19:38:50.622Z,17.95
2018-10-11T19:41:18.981Z,17.89
2018-10-11T19:43:47.287Z,17.87
2018-10-11T19:46:15.732Z,17.93
2018-10-11T19:48:44.123Z,17.93
2018-10-11T19:51:12.591Z,17.90
2018-10-11T19:53:41.025Z,17.94
2018-10-11T19:56:09.441Z,17.92
2018-10-11T19:58:37.854Z,17.89
2018-10-11T20:01:06.212Z,17.87
2018-10-11T20:03:35.319Z,17.82
2018-10-11T20:06:03.715Z,17.81
2018-10-11T20:08:32.072Z,17.78
2018-10-11T20:11:00.341Z,17.72
2018-10-11T20:13:28.850Z,17.64
2018-10-11T20:15:57.428Z,17.59
2018-10-11T20:18:25.672Z,17.54
2018-10-11T20:20:54.068Z,17.44
2018-10-11T20:23:22.676Z,17.39
2018-10-11T20:25:51.048Z,17.35
2018-10-11T20:28:19.483Z,17.33
2018-10-11T20:30:47.772Z,17.28
2018-10-11T20:33:16.260Z,17.24
2018-10-11T20:35:44.540Z,17.20
2018-10-11T20:38:13.062Z,17.19
2018-10-11T20:40:41.672Z,17.19
2018-10-11T20:43:10.175Z,17.12
2018-10-11T20:45:38.783Z,17.13
2018-10-11T20:48:07.155Z,17.12
2018-10-11T20:50:35.595Z,17.08
2018-10-11T20:53:03.977Z,17.03
2018-10-11T20:55:32.408Z,17.03
2018-10-11T20:58:00.875Z,17.00
2018-10-11T21:00:29.430Z,17.00
2018-10-11T21:02:58.863Z,17.03
2018-10-11T21:05:27.376Z,17.03
2018-10-11T21:07:56.091Z,17.01
2018-10-11T21:10:24.966Z,16.99
2018-10-11T21:12:53.212Z,17.01
2018-10-11T21:15:21.681Z,17.01
2018-10-11T21:17:50.152Z,17.02
2018-10-11T21:20:18.731Z,16.97
2018-10-11T21:22:50.340Z,16.95
2018-10-11T21:25:18.768Z,17.02
2018-10-11T21:27:47.022Z,16.96
2018-10-11T21:30:15.536Z,16.95
2018-10-11T21:32:45.238Z,16.91
2018-10-11T21:35:13.628Z,16.86
2018-10-11T21:37:42.009Z,16.79
2018-10-11T21:40:10.472Z,16.72
2018-10-11T21:42:38.902Z,16.72
2018-10-11T21:45:07.212Z,16.64
2018-10-11T21:47:35.675Z,16.59
2018-10-11T21:50:04.298Z,16.54
2018-10-11T21:52:32.613Z,16.49
2018-10-11T21:55:00.927Z,16.41
2018-10-11T21:57:29.176Z,16.36
2018-10-11T21:59:57.534Z,16.31
2018-10-11T22:02:25.860Z,16.34
2018-10-11T22:04:54.114Z,16.32
2018-10-11T22:07:22.480Z,16.32
2018-10-11T22:09:50.799Z,16.29
2018-10-11T22:12:19.105Z,16.30
2018-10-11T22:14:47.528Z,16.31
2018-10-11T22:17:15.836Z,16.31
2018-10-11T22:19:44.267Z,16.31
2018-10-11T22:22:12.624Z,16.34
2018-10-11T22:24:41.032Z,16.38
2018-10-11T22:27:09.361Z,16.43
2018-10-11T22:29:37.813Z,16.51
2018-10-11T22:32:06.160Z,16.50
2018-10-11T22:34:34.466Z,16.53
2018-10-11T22:37:03.222Z,16.48
2018-10-11T22:39:31.642Z,16.53
2018-10-11T22:41:59.967Z,16.57
2018-10-11T22:44:28.491Z,16.57
2018-10-11T22:46:56.851Z,16.57
2018-10-11T22:49:25.170Z,16.52
2018-10-11T22:51:53.469Z,16.49
2018-10-11T22:54:21.783Z,16.49
2018-10-11T22:56:50.202Z,16.49
2018-10-11T22:59:18.508Z,16.50
2018-10-11T23:01:47.151Z,16.44
2018-10-11T23:04:15.476Z,16.42
2018-10-11T23:06:44.472Z,16.45
2018-10-11T23:09:12.750Z,16.45
2018-10-11T23:11:41.173Z,16.38
2018-10-11T23:14:09.561Z,16.39
2018-10-11T23:16:38.049Z,16.41
2018-10-11T23:19:06.432Z,16.38
2018-10-11T23:21:35.810Z,16.36
2018-10-11T23:24:04.113Z,16.35
2018-10-11T23:26:32.388Z,16.33
2018-10-11T23:29:00.828Z,16.33
2018-10-11T23:31:29.146Z,16.29
2018-10-11T23:33:57.965Z,16.21
2018-10-11T23:36:26.294Z,16.13
2018-10-11T23:38:54.596Z,16.05
2018-10-11T23:41:22.891Z,15.99
2018-10-11T23:43:51.347Z,16.01
2018-10-11T23:46:19.612Z,15.97
2018-10-11T23:48:47.924Z,15.86
2018-10-11T23:51:16.189Z,15.73
2018-10-11T23:53:44.492Z,15.61
2018-10-11T23:56:13.242Z,15.59
2018-10-11T23:58:41.561Z,15.54
